Time;durP1;ratioP1;P1;durP2;ratioP2;P2;SDS_P1;SDS_P2;PMS_P1;PMS_P2;Temp;Humidity;BMP_temperature;BMP_pressure;BME280_temperature;BME280_humidity;BME280_pressure;Samples;Min_cycle;Max_cycle;Signal;HPM_P1;HPM_P2
2020/12/19 00:02:13;;;;;;;101.22;29.85;;;7.00;99.90;;;;;;10368447;28;20057;-70
2020/12/19 00:07:17;;;;;;;130.32;33.28;;;7.00;99.90;;;;;;10373828;28;20050;-70
2020/12/19 00:12:22;;;;;;;113.80;32.20;;;6.90;99.90;;;;;;10373868;28;20049;-70
2020/12/19 00:17:24;;;;;;;475.63;33.80;;;7.00;99.90;;;;;;10372466;28;20060;-70
2020/12/19 00:22:25;;;;;;;390.63;36.15;;;6.90;99.90;;;;;;10374183;28;20513;-70
2020/12/19 00:27:27;;;;;;;697.67;33.92;;;6.70;99.90;;;;;;10350402;28;20478;-70
2020/12/19 00:32:28;;;;;;;586.95;26.92;;;6.70;99.90;;;;;;10372296;28;20062;-70
2020/12/19 00:37:29;;;;;;;725.28;34.70;;;6.70;99.90;;;;;;10364994;28;20085;-70
2020/12/19 00:42:31;;;;;;;768.00;43.13;;;6.50;99.90;;;;;;10373153;28;20133;-70
2020/12/19 00:47:36;;;;;;;407.33;30.95;;;6.60;99.90;;;;;;10337464;28;20108;-70
2020/12/19 00:52:38;;;;;;;588.83;35.13;;;6.70;99.90;;;;;;10356026;28;20603;-70
2020/12/19 00:57:39;;;;;;;663.45;32.45;;;6.80;99.90;;;;;;10344755;28;20116;-70
2020/12/19 01:02:41;;;;;;;786.50;30.35;;;6.50;99.90;;;;;;10371321;28;20057;-70
2020/12/19 01:07:47;;;;;;;492.15;26.60;;;6.50;99.90;;;;;;10338587;28;20058;-70
2020/12/19 01:12:48;;;;;;;643.42;35.80;;;6.50;99.90;;;;;;10365719;28;20054;-70
2020/12/19 01:17:50;;;;;;;382.65;31.98;;;6.60;99.90;;;;;;10336416;28;20090;-70
2020/12/19 01:22:52;;;;;;;463.98;27.83;;;6.60;99.90;;;;;;10365626;28;20061;-70
2020/12/19 01:27:54;;;;;;;664.85;33.75;;;6.80;99.90;;;;;;10339466;28;20108;-70
2020/12/19 01:32:55;;;;;;;499.98;25.15;;;6.80;99.90;;;;;;10365399;28;20065;-70
2020/12/19 01:38:09;;;;;;;645.47;38.60;;;6.80;99.90;;;;;;10349971;28;20081;-69
2020/12/19 01:43:10;;;;;;;444.88;32.00;;;6.70;99.90;;;;;;10364799;28;20063;-70
2020/12/19 01:48:26;;;;;;;624.60;36.17;;;6.80;99.90;;;;;;10347263;28;20084;-70
2020/12/19 01:53:29;;;;;;;715.92;30.48;;;6.90;99.90;;;;;;10358653;28;20545;-70
2020/12/19 01:58:31;;;;;;;490.38;33.15;;;6.70;99.90;;;;;;10332161;28;20072;-70
2020/12/19 02:03:32;;;;;;;697.30;32.00;;;6.70;99.90;;;;;;10358821;28;20111;-70
2020/12/19 02:08:34;;;;;;;967.65;43.15;;;6.60;99.90;;;;;;10359599;28;20477;-70
2020/12/19 02:13:35;;;;;;;548.92;30.88;;;6.40;99.90;;;;;;10340304;28;20069;-70
2020/12/19 02:18:37;;;;;;;596.80;35.60;;;6.30;99.90;;;;;;10373775;28;20051;-70
2020/12/19 02:23:39;;;;;;;367.95;22.85;;;6.40;99.90;;;;;;10332368;28;20094;-70
2020/12/19 02:28:40;;;;;;;664.78;30.55;;;6.40;99.90;;;;;;10340050;28;20053;-70
2020/12/19 02:33:41;;;;;;;611.60;30.45;;;6.30;99.90;;;;;;10333691;28;20525;-70
2020/12/19 02:38:43;;;;;;;667.00;41.38;;;6.20;99.90;;;;;;10359376;28;20120;-70
2020/12/19 02:43:55;;;;;;;634.30;33.92;;;6.20;99.90;;;;;;10358519;28;20443;-70
2020/12/19 02:48:56;;;;;;;1150.75;48.90;;;6.20;99.90;;;;;;10331654;28;20093;-70
2020/12/19 02:53:58;;;;;;;1020.05;57.20;;;6.00;99.90;;;;;;10358888;28;20058;-70
2020/12/19 02:59:00;;;;;;;1097.57;52.97;;;5.70;99.90;;;;;;10339857;28;20081;-70
2020/12/19 03:04:01;;;;;;;704.47;40.45;;;5.60;99.90;;;;;;10364667;28;20046;-70
2020/12/19 03:09:06;;;;;;;909.72;39.70;;;5.60;99.90;;;;;;10365383;28;20062;-70
2020/12/19 03:14:08;;;;;;;714.78;42.80;;;5.60;99.90;;;;;;10332921;28;20062;-70
2020/12/19 03:19:09;;;;;;;333.55;23.10;;;5.70;99.90;;;;;;10364645;28;20112;-70
2020/12/19 03:24:11;;;;;;;420.20;25.02;;;5.90;99.90;;;;;;10334266;28;20140;-70
2020/12/19 03:29:12;;;;;;;419.90;31.02;;;6.00;99.90;;;;;;10366076;28;20450;-69
2020/12/19 03:34:14;;;;;;;514.58;35.15;;;6.10;99.90;;;;;;10330267;28;20050;-70
2020/12/19 03:39:17;;;;;;;424.20;25.35;;;6.00;99.90;;;;;;10355248;28;20145;-70
2020/12/19 03:44:18;;;;;;;397.40;30.77;;;6.10;99.90;;;;;;10354788;28;20051;-70
2020/12/19 03:49:20;;;;;;;534.67;35.97;;;6.10;99.90;;;;;;10358060;28;20046;-70
2020/12/19 03:54:21;;;;;;;573.58;37.05;;;6.10;99.90;;;;;;10357005;28;20509;-69
2020/12/19 03:59:23;;;;;;;1165.18;56.22;;;6.00;99.90;;;;;;10356036;28;20517;-70
2020/12/19 04:04:24;;;;;;;914.17;48.80;;;6.20;99.90;;;;;;10376599;28;20089;-69
2020/12/19 04:09:34;;;;;;;826.38;44.75;;;6.10;99.90;;;;;;10337154;28;20049;-70
2020/12/19 04:14:39;;;;;;;154.05;24.77;;;6.00;99.90;;;;;;10372645;28;20467;-70
2020/12/19 04:19:42;;;;;;;432.80;38.88;;;5.80;99.90;;;;;;10351919;28;20406;-70
2020/12/19 04:24:43;;;;;;;308.50;34.17;;;5.70;99.90;;;;;;10337786;28;20050;-70
2020/12/19 04:29:45;;;;;;;40.80;19.48;;;5.70;99.90;;;;;;10335106;28;20085;-70
2020/12/19 04:34:46;;;;;;;190.40;25.60;;;5.60;99.90;;;;;;10371606;28;20141;-70
2020/12/19 04:39:54;;;;;;;73.35;20.85;;;5.50;99.90;;;;;;10336244;28;20065;-70
2020/12/19 04:44:57;;;;;;;108.65;23.38;;;5.50;99.90;;;;;;10371275;28;20085;-70
2020/12/19 04:50:01;;;;;;;239.02;27.52;;;5.50;99.90;;;;;;10335382;28;20050;-69
2020/12/19 04:55:03;;;;;;;359.88;33.72;;;5.60;99.90;;;;;;10361465;28;20047;-69
2020/12/19 05:00:05;;;;;;;447.10;34.13;;;5.60;99.90;;;;;;10352105;28;20050;-70
2020/12/19 05:05:07;;;;;;;636.25;42.40;;;5.50;99.90;;;;;;10357766;28;20061;-70
2020/12/19 05:10:15;;;;;;;862.15;53.10;;;5.50;99.90;;;;;;10351047;28;20403;-70
2020/12/19 05:15:17;;;;;;;691.45;36.65;;;5.50;99.90;;;;;;10371286;28;20051;-70
2020/12/19 05:20:23;;;;;;;589.65;37.97;;;5.40;99.90;;;;;;10357479;28;20081;-69
2020/12/19 05:25:27;;;;;;;657.78;39.03;;;5.50;99.90;;;;;;10362333;28;20057;-69
2020/12/19 05:30:29;;;;;;;735.88;43.95;;;5.50;99.90;;;;;;10344875;28;20120;-70
2020/12/19 05:35:31;;;;;;;698.33;45.40;;;5.50;99.90;;;;;;10361028;28;20485;-70
2020/12/19 05:40:34;;;;;;;422.17;25.67;;;5.50;99.90;;;;;;10344566;28;20100;-70
2020/12/19 05:45:36;;;;;;;588.33;40.85;;;5.50;99.90;;;;;;10374847;28;20085;-70
2020/12/19 05:50:38;;;;;;;616.42;38.33;;;5.40;99.90;;;;;;10348897;28;20068;-69
2020/12/19 05:55:39;;;;;;;666.25;51.00;;;5.40;99.90;;;;;;10368671;28;20050;-70
2020/12/19 06:00:42;;;;;;;463.67;27.05;;;5.30;99.90;;;;;;10339777;28;20052;-70
2020/12/19 06:05:43;;;;;;;388.42;28.95;;;5.30;99.90;;;;;;10384598;28;20134;-70
2020/12/19 06:10:48;;;;;;;511.95;35.22;;;5.40;99.90;;;;;;10335667;28;20052;-70
2020/12/19 06:16:09;;;;;;;514.75;39.58;;;5.40;99.90;;;;;;10367501;28;20525;-70
2020/12/19 06:21:12;;;;;;;575.97;42.23;;;5.30;99.90;;;;;;10355488;28;20524;-70
2020/12/19 06:26:14;;;;;;;468.63;34.72;;;5.20;99.90;;;;;;10348069;28;20082;-70
2020/12/19 06:31:15;;;;;;;506.30;35.95;;;5.20;99.90;;;;;;10354136;28;20103;-69
2020/12/19 06:36:24;;;;;;;472.08;37.63;;;5.10;99.90;;;;;;10370130;28;20058;-70
2020/12/19 06:41:46;;;;;;;656.80;51.05;;;5.10;99.90;;;;;;10368946;28;20553;-69
2020/12/19 06:46:48;;;;;;;415.15;31.80;;;5.10;99.90;;;;;;10347970;28;20046;-70
2020/12/19 06:51:59;;;;;;;219.05;23.27;;;5.10;99.90;;;;;;10366386;28;20038;-70
2020/12/19 06:57:05;;;;;;;467.20;30.02;;;5.10;99.90;;;;;;10331659;28;20050;-72
2020/12/19 07:02:21;;;;;;;372.80;28.45;;;5.10;99.90;;;;;;10349070;28;20128;-72
2020/12/19 07:07:27;;;;;;;256.67;22.63;;;5.30;99.90;;;;;;10360268;28;20050;-72
2020/12/19 07:12:35;;;;;;;336.58;25.38;;;5.30;99.90;;;;;;10341384;28;20049;-72
2020/12/19 07:17:49;;;;;;;513.45;37.35;;;5.40;99.90;;;;;;10357867;28;20078;-72
2020/12/19 07:22:51;;;;;;;337.65;28.10;;;5.40;99.90;;;;;;10384357;28;20056;-72
2020/12/19 07:27:55;;;;;;;479.33;31.95;;;5.40;99.90;;;;;;10360640;28;20038;-72
2020/12/19 07:32:57;;;;;;;487.13;40.35;;;5.30;99.90;;;;;;10380479;28;20065;-72
2020/12/19 07:37:59;;;;;;;542.00;39.92;;;5.20;99.90;;;;;;10345293;28;20043;-72
2020/12/19 07:43:03;;;;;;;766.00;42.25;;;5.20;99.90;;;;;;10380972;28;20045;-72
2020/12/19 07:48:05;;;;;;;688.22;43.88;;;5.10;99.90;;;;;;10352779;28;20084;-72
2020/12/19 07:53:08;;;;;;;470.88;38.55;;;5.10;99.90;;;;;;10381692;28;20398;-72
2020/12/19 07:58:10;;;;;;;495.05;32.08;;;5.10;99.90;;;;;;10381319;28;20464;-72
2020/12/19 08:03:14;;;;;;;548.00;31.77;;;5.10;99.90;;;;;;10397162;28;20093;-72
2020/12/19 08:08:16;;;;;;;461.38;35.85;;;5.10;99.90;;;;;;10374700;28;20089;-71
2020/12/19 08:13:17;;;;;;;675.17;45.22;;;5.10;99.90;;;;;;10371211;28;20085;-72
2020/12/19 08:18:20;;;;;;;524.97;32.95;;;5.20;99.90;;;;;;10360830;28;20069;-72
2020/12/19 08:23:21;;;;;;;739.08;52.20;;;5.20;99.90;;;;;;10369253;28;20054;-72
2020/12/19 08:28:24;;;;;;;432.00;29.27;;;5.20;99.90;;;;;;10368278;28;20125;-72
2020/12/19 08:33:29;;;;;;;355.73;23.42;;;5.20;99.90;;;;;;10365517;28;20057;-72
2020/12/19 08:38:31;;;;;;;512.15;36.45;;;5.30;99.90;;;;;;10364310;28;20042;-72
2020/12/19 08:43:39;;;;;;;339.88;34.38;;;5.40;99.90;;;;;;10359909;28;20073;-72
2020/12/19 08:48:41;;;;;;;433.38;43.00;;;5.50;99.90;;;;;;10365105;28;20052;-72
2020/12/19 08:53:43;;;;;;;566.35;45.65;;;5.50;99.90;;;;;;10361894;28;20082;-72
2020/12/19 08:58:56;;;;;;;414.08;34.15;;;5.40;99.90;;;;;;10360494;28;20566;-72
2020/12/19 09:04:11;;;;;;;677.90;44.47;;;5.50;99.90;;;;;;10353929;28;20135;-72
2020/12/19 09:09:18;;;;;;;502.48;38.97;;;5.50;99.90;;;;;;10358649;28;20053;-72
2020/12/19 09:14:19;;;;;;;444.80;28.13;;;5.60;99.90;;;;;;10362624;28;20042;-72
2020/12/19 09:19:20;;;;;;;428.10;28.00;;;5.70;99.90;;;;;;10362799;28;20042;-72
2020/12/19 09:24:23;;;;;;;457.02;30.20;;;5.80;99.90;;;;;;10363013;28;20077;-72
2020/12/19 09:29:24;;;;;;;403.30;26.52;;;5.80;99.90;;;;;;10360138;28;20236;-72
2020/12/19 09:34:25;;;;;;;597.90;36.28;;;6.00;99.90;;;;;;10358162;28;20582;-72
2020/12/19 09:39:27;;;;;;;582.78;36.15;;;6.00;99.90;;;;;;10360774;28;20041;-72
2020/12/19 09:44:28;;;;;;;703.58;40.83;;;6.00;99.90;;;;;;10364930;28;20124;-72
2020/12/19 09:49:30;;;;;;;228.13;24.15;;;6.10;99.90;;;;;;10376094;28;20096;-72
2020/12/19 09:54:31;;;;;;;33.03;20.25;;;6.30;99.90;;;;;;10355170;28;20104;-73
2020/12/19 09:59:33;;;;;;;41.50;23.52;;;6.40;99.90;;;;;;10357512;28;20392;-72
2020/12/19 10:04:34;;;;;;;107.50;34.80;;;6.40;99.90;;;;;;10357614;28;20454;-72
2020/12/19 10:09:35;;;;;;;35.53;23.42;;;6.50;99.90;;;;;;10376546;28;20170;-72
2020/12/19 10:14:37;;;;;;;39.42;24.98;;;6.50;99.90;;;;;;10360213;28;20129;-72
2020/12/19 10:19:38;;;;;;;32.83;21.70;;;6.80;99.90;;;;;;10364262;28;20086;-72
2020/12/19 10:24:41;;;;;;;32.20;21.83;;;6.90;99.90;;;;;;10357275;28;20145;-72
2020/12/19 10:29:42;;;;;;;36.55;24.65;;;7.00;99.90;;;;;;10355673;28;20092;-73
2020/12/19 10:34:46;;;;;;;30.02;22.35;;;7.10;99.90;;;;;;10356096;28;20159;-73
2020/12/19 10:39:48;;;;;;;32.28;23.17;;;7.10;99.90;;;;;;10360366;28;20057;-73
2020/12/19 10:44:50;;;;;;;32.47;22.77;;;7.20;99.90;;;;;;10358676;28;20053;-73
2020/12/19 10:49:52;;;;;;;28.23;21.00;;;7.30;99.90;;;;;;10354858;28;20533;-73
2020/12/19 10:54:54;;;;;;;30.67;22.35;;;7.50;99.90;;;;;;10356969;28;20121;-73
2020/12/19 10:59:56;;;;;;;27.02;20.08;;;7.70;99.90;;;;;;10360204;28;20108;-73
2020/12/19 11:04:58;;;;;;;26.45;20.38;;;7.90;99.90;;;;;;10358639;28;20054;-72
2020/12/19 11:09:59;;;;;;;22.63;18.95;;;8.10;99.90;;;;;;10357324;28;20125;-72
2020/12/19 11:15:00;;;;;;;27.02;20.10;;;8.10;99.90;;;;;;10353871;28;20054;-73
2020/12/19 11:20:03;;;;;;;22.77;17.80;;;8.20;99.90;;;;;;10362978;28;20544;-73
2020/12/19 11:25:04;;;;;;;25.15;20.58;;;8.40;99.90;;;;;;10353209;28;20132;-73
2020/12/19 11:30:05;;;;;;;25.15;19.35;;;8.40;99.90;;;;;;10357187;28;20061;-73
2020/12/19 11:35:08;;;;;;;22.83;18.42;;;8.50;99.90;;;;;;10359743;28;20572;-73
2020/12/19 11:40:09;;;;;;;22.45;17.77;;;8.60;99.90;;;;;;10374897;28;20142;-73
2020/12/19 11:45:11;;;;;;;24.73;18.50;;;8.80;99.90;;;;;;10354797;28;20116;-74
2020/12/19 11:50:13;;;;;;;24.42;19.35;;;9.00;99.90;;;;;;10359304;28;20042;-73
2020/12/19 11:55:14;;;;;;;24.65;14.85;;;9.20;99.90;;;;;;10348830;28;20449;-74
2020/12/19 12:00:16;;;;;;;18.50;14.48;;;9.40;99.90;;;;;;10365188;28;20049;-73
2020/12/19 12:05:18;;;;;;;21.85;15.90;;;9.60;99.90;;;;;;10358707;28;20128;-73
2020/12/19 12:10:19;;;;;;;19.33;15.95;;;9.80;99.90;;;;;;10370790;28;20425;-74
2020/12/19 12:15:22;;;;;;;22.55;17.10;;;9.90;99.90;;;;;;10360261;28;20054;-74
2020/12/19 12:20:23;;;;;;;25.05;17.17;;;10.00;99.90;;;;;;10363561;28;20121;-73
2020/12/19 12:25:25;;;;;;;18.85;14.27;;;10.10;99.90;;;;;;10355332;28;20128;-73
2020/12/19 12:30:27;;;;;;;14.63;11.00;;;10.30;99.90;;;;;;10366000;28;20406;-73
2020/12/19 12:35:28;;;;;;;14.48;10.93;;;10.60;99.90;;;;;;10365490;28;20579;-73
2020/12/19 12:40:29;;;;;;;13.93;9.65;;;10.80;99.90;;;;;;10361948;28;20161;-74
2020/12/19 12:45:31;;;;;;;16.52;10.35;;;11.00;99.90;;;;;;10361674;28;20050;-73
2020/12/19 12:50:32;;;;;;;15.82;10.60;;;11.00;99.80;;;;;;10379769;28;20096;-74
2020/12/19 12:55:34;;;;;;;13.52;9.02;;;11.30;99.80;;;;;;10367143;28;20054;-74
2020/12/19 13:00:35;;;;;;;12.35;8.48;;;11.20;99.50;;;;;;10356836;28;20069;-74
2020/12/19 13:05:37;;;;;;;13.43;9.70;;;11.50;98.50;;;;;;10375838;28;20077;-74
2020/12/19 13:10:42;;;;;;;14.35;9.73;;;11.80;97.90;;;;;;10361262;28;22558;-74
2020/12/19 13:15:43;;;;;;;14.68;9.10;;;12.00;97.30;;;;;;10360639;28;20129;-74
2020/12/19 13:20:45;;;;;;;15.90;9.90;;;12.10;97.00;;;;;;10360648;28;20129;-74
2020/12/19 13:25:47;;;;;;;15.77;8.48;;;12.30;96.80;;;;;;10361773;28;20058;-74
2020/12/19 13:30:49;;;;;;;10.25;7.63;;;12.30;96.60;;;;;;10358054;28;20041;-73
2020/12/19 13:35:50;;;;;;;9.55;6.88;;;12.10;96.50;;;;;;10364016;28;20074;-74
2020/12/19 13:40:52;;;;;;;9.50;6.78;;;12.10;96.50;;;;;;10358167;28;20477;-74
2020/12/19 13:45:53;;;;;;;8.68;7.03;;;12.00;97.00;;;;;;10350924;28;20097;-74
2020/12/19 13:50:55;;;;;;;9.80;6.88;;;12.00;96.10;;;;;;10357507;28;20124;-74
2020/12/19 13:55:57;;;;;;;11.45;7.18;;;11.90;95.80;;;;;;10357696;28;20093;-74
2020/12/19 14:00:58;;;;;;;11.32;6.80;;;11.90;96.40;;;;;;10355515;28;20140;-74
2020/12/19 14:05:59;;;;;;;9.13;6.88;;;11.80;95.60;;;;;;10360767;28;20129;-74
2020/12/19 14:11:01;;;;;;;10.35;7.20;;;11.80;95.90;;;;;;10359772;28;20050;-75
2020/12/19 14:16:02;;;;;;;13.45;7.80;;;11.70;95.80;;;;;;10352911;28;20070;-75
2020/12/19 14:21:04;;;;;;;14.98;8.18;;;11.70;96.00;;;;;;10364125;28;20469;-75
2020/12/19 14:26:06;;;;;;;14.35;8.68;;;11.70;95.60;;;;;;10352219;28;20128;-74
2020/12/19 14:31:08;;;;;;;14.02;8.70;;;11.60;95.60;;;;;;10366559;28;20084;-74
2020/12/19 14:36:21;;;;;;;13.30;9.18;;;11.40;95.80;;;;;;10345678;28;20506;-74
2020/12/19 14:41:24;;;;;;;12.70;9.10;;;11.30;95.70;;;;;;10359331;28;20045;-75
2020/12/19 14:46:26;;;;;;;12.70;8.15;;;11.20;95.90;;;;;;10359274;28;20052;-75
2020/12/19 14:51:27;;;;;;;12.48;9.55;;;11.10;95.70;;;;;;10359351;28;20145;-75
2020/12/19 14:56:28;;;;;;;13.18;10.05;;;11.00;95.70;;;;;;10362094;28;20077;-74
2020/12/19 15:01:30;;;;;;;13.43;9.27;;;10.90;96.00;;;;;;10358678;28;20074;-74
2020/12/19 15:06:31;;;;;;;11.35;8.63;;;10.80;96.00;;;;;;10357291;28;20038;-74
2020/12/19 15:11:33;;;;;;;13.65;8.85;;;10.70;95.90;;;;;;10359562;28;20489;-74
2020/12/19 15:16:37;;;;;;;13.52;9.23;;;10.60;96.00;;;;;;10357851;28;20034;-74
2020/12/19 15:21:39;;;;;;;14.10;10.13;;;10.40;96.00;;;;;;10353184;28;20525;-74
2020/12/19 15:26:40;;;;;;;14.45;10.25;;;10.10;96.50;;;;;;10360426;28;20080;-74
2020/12/19 15:31:42;;;;;;;14.25;9.52;;;10.00;96.60;;;;;;10368229;28;20056;-74
2020/12/19 15:36:47;;;;;;;13.98;10.43;;;9.90;96.80;;;;;;10369071;28;20073;-74
2020/12/19 15:41:51;;;;;;;13.98;10.05;;;9.80;97.10;;;;;;10364120;28;20557;-74
2020/12/19 15:46:52;;;;;;;15.50;10.68;;;9.60;97.30;;;;;;10364570;28;20042;-74
2020/12/19 15:51:54;;;;;;;17.58;10.88;;;9.60;97.70;;;;;;10369638;28;20057;-74
2020/12/19 15:56:55;;;;;;;21.85;13.43;;;9.40;98.10;;;;;;10355874;28;20129;-73
2020/12/19 16:01:57;;;;;;;15.95;11.80;;;9.30;98.30;;;;;;10359454;28;20061;-74
2020/12/19 16:06:59;;;;;;;16.73;12.05;;;9.30;98.40;;;;;;10350820;28;20042;-73
2020/12/19 16:12:00;;;;;;;15.98;11.82;;;9.30;98.40;;;;;;10376245;28;20146;-74
2020/12/19 16:17:02;;;;;;;18.00;12.38;;;9.30;98.40;;;;;;10376549;28;20274;-74
2020/12/19 16:22:03;;;;;;;18.83;13.05;;;9.20;98.60;;;;;;10363307;28;20520;-72
2020/12/19 16:27:05;;;;;;;17.73;13.45;;;9.20;98.70;;;;;;10362207;28;20077;-71
2020/12/19 16:32:08;;;;;;;17.85;12.85;;;9.20;98.70;;;;;;10358284;28;20479;-70
2020/12/19 16:37:10;;;;;;;20.95;13.65;;;9.20;98.60;;;;;;10366283;28;20104;-69
2020/12/19 16:42:13;;;;;;;21.75;14.38;;;9.20;98.60;;;;;;10366791;28;20050;-70
2020/12/19 16:47:15;;;;;;;19.95;13.63;;;9.10;98.70;;;;;;10359424;28;20124;-67
2020/12/19 16:52:21;;;;;;;17.88;13.85;;;9.10;98.80;;;;;;10354104;28;20127;-67
2020/12/19 16:57:22;;;;;;;20.98;15.18;;;9.10;98.80;;;;;;10356234;28;20141;-67
2020/12/19 17:02:23;;;;;;;22.02;14.98;;;9.00;99.10;;;;;;10363955;28;20073;-67
2020/12/19 17:07:25;;;;;;;24.95;18.23;;;9.00;99.30;;;;;;10356011;28;20168;-67
2020/12/19 17:12:44;;;;;;;19.00;13.93;;;9.00;99.20;;;;;;10360811;28;20361;-67
2020/12/19 17:17:46;;;;;;;22.52;15.27;;;8.80;99.40;;;;;;10374132;28;20042;-67
2020/12/19 17:22:47;;;;;;;17.67;13.70;;;8.50;99.90;;;;;;10358123;28;20498;-67
2020/12/19 17:27:49;;;;;;;25.27;15.48;;;8.50;99.90;;;;;;10352859;28;20121;-67
2020/12/19 17:32:51;;;;;;;19.85;15.02;;;8.60;99.90;;;;;;10360918;28;20488;-66
2020/12/19 17:37:53;;;;;;;21.60;15.82;;;8.70;99.90;;;;;;10354849;28;20050;-67
2020/12/19 17:42:54;;;;;;;23.50;17.25;;;8.80;99.90;;;;;;10353024;28;20509;-67
2020/12/19 17:47:55;;;;;;;15.80;12.13;;;8.80;99.90;;;;;;10359939;28;20046;-67
2020/12/19 17:52:58;;;;;;;51.05;31.65;;;8.90;99.90;;;;;;10358711;28;20815;-66
2020/12/19 17:57:59;;;;;;;36.35;22.85;;;9.10;99.90;;;;;;10360498;28;20535;-67
2020/12/19 18:03:01;;;;;;;28.33;20.48;;;9.00;99.90;;;;;;10341820;28;20041;-66
2020/12/19 18:08:02;;;;;;;24.55;18.60;;;9.00;99.90;;;;;;10352384;28;20113;-67
2020/12/19 18:13:04;;;;;;;26.10;16.50;;;9.00;99.90;;;;;;10362073;28;20077;-67
2020/12/19 18:18:05;;;;;;;19.42;14.07;;;9.00;99.90;;;;;;10360145;28;20046;-67
2020/12/19 18:23:07;;;;;;;21.27;15.50;;;9.00;99.90;;;;;;10361123;28;20060;-67
2020/12/19 18:28:11;;;;;;;19.75;13.90;;;9.00;99.90;;;;;;10355248;28;20494;-67
2020/12/19 18:33:13;;;;;;;19.55;13.38;;;9.00;99.90;;;;;;10357148;28;20141;-67
2020/12/19 18:38:15;;;;;;;15.95;12.68;;;9.10;99.90;;;;;;10352142;28;20050;-67
2020/12/19 18:43:16;;;;;;;19.38;14.40;;;9.20;99.60;;;;;;10371956;28;20061;-67
2020/12/19 18:48:18;;;;;;;20.15;14.05;;;9.10;99.50;;;;;;10357025;28;20141;-67
2020/12/19 18:53:19;;;;;;;18.27;14.50;;;9.00;99.90;;;;;;10356206;28;20152;-67
2020/12/19 18:58:22;;;;;;;22.17;15.00;;;9.00;99.70;;;;;;10358576;28;20077;-67
2020/12/19 19:03:26;;;;;;;18.92;13.25;;;9.00;99.80;;;;;;10349400;28;20494;-67
2020/12/19 19:08:28;;;;;;;17.20;12.27;;;9.00;99.80;;;;;;10349686;28;20088;-66
2020/12/19 19:13:30;;;;;;;18.63;12.43;;;9.00;99.70;;;;;;10352086;28;20050;-67
2020/12/19 19:18:34;;;;;;;19.40;12.13;;;9.00;99.60;;;;;;10349389;28;20042;-67
2020/12/19 19:23:36;;;;;;;14.73;11.48;;;9.00;99.40;;;;;;10354302;28;20054;-66
2020/12/19 19:28:37;;;;;;;13.70;10.00;;;9.10;99.30;;;;;;10354633;28;20073;-67
2020/12/19 19:33:39;;;;;;;16.17;11.60;;;9.00;99.00;;;;;;10356527;28;20510;-66
2020/12/19 19:38:41;;;;;;;16.23;10.52;;;9.00;99.20;;;;;;10355721;28;20418;-67
2020/12/19 19:43:42;;;;;;;15.75;10.82;;;8.90;99.40;;;;;;10350147;28;20067;-66
2020/12/19 19:48:51;;;;;;;15.15;11.27;;;9.00;99.30;;;;;;10355251;28;20372;-66
2020/12/19 19:53:55;;;;;;;17.50;11.80;;;9.00;99.50;;;;;;10355835;28;20742;-67
2020/12/19 19:58:56;;;;;;;18.33;12.77;;;9.00;99.40;;;;;;10353429;28;20502;-66
2020/12/19 20:03:58;;;;;;;18.45;12.50;;;9.10;99.30;;;;;;10351343;28;20081;-67
2020/12/19 20:09:03;;;;;;;24.67;12.80;;;9.10;99.00;;;;;;10360091;28;20042;-67
2020/12/19 20:14:06;;;;;;;16.20;12.45;;;8.90;99.60;;;;;;10353818;28;20085;-67
2020/12/19 20:19:11;;;;;;;16.80;12.93;;;9.00;99.50;;;;;;10353468;28;20045;-66
2020/12/19 20:24:13;;;;;;;23.33;17.98;;;9.00;99.40;;;;;;10365274;28;20568;-67
2020/12/19 20:29:14;;;;;;;26.40;16.50;;;9.00;99.50;;;;;;10357014;28;20550;-67
2020/12/19 20:34:15;;;;;;;19.52;13.80;;;9.00;99.50;;;;;;10366957;28;20136;-66
2020/12/19 20:39:17;;;;;;;18.33;13.40;;;9.00;99.70;;;;;;10358740;28;20138;-67
2020/12/19 20:44:19;;;;;;;19.60;13.65;;;9.10;99.70;;;;;;10360372;28;20077;-67
2020/12/19 20:49:30;;;;;;;18.02;13.43;;;9.20;99.50;;;;;;10358318;28;20204;-66
2020/12/19 20:54:32;;;;;;;20.35;13.23;;;9.20;99.40;;;;;;10359836;28;20046;-67
2020/12/19 20:59:35;;;;;;;15.30;11.93;;;9.30;99.40;;;;;;10354405;28;20084;-67
2020/12/19 21:04:37;;;;;;;18.15;11.98;;;9.20;99.20;;;;;;10380462;28;20262;-67
2020/12/19 21:09:39;;;;;;;16.13;12.15;;;9.20;99.10;;;;;;10353882;28;20081;-67
2020/12/19 21:14:41;;;;;;;15.52;10.93;;;9.30;99.10;;;;;;10356292;28;20058;-67
2020/12/19 21:19:48;;;;;;;17.17;11.15;;;9.30;99.00;;;;;;10363782;28;20037;-67
2020/12/19 21:24:49;;;;;;;19.27;14.52;;;9.20;99.20;;;;;;10363626;28;20141;-67
2020/12/19 21:29:51;;;;;;;19.13;14.35;;;9.20;99.30;;;;;;10353801;28;20519;-67
2020/12/19 21:34:52;;;;;;;19.70;13.48;;;9.10;99.40;;;;;;10365824;28;20568;-67
2020/12/19 21:39:54;;;;;;;16.25;12.70;;;9.10;99.50;;;;;;10363083;28;20513;-67
2020/12/19 21:44:55;;;;;;;18.95;12.82;;;9.10;99.50;;;;;;10353806;28;20049;-67
2020/12/19 21:50:08;;;;;;;17.02;11.88;;;9.10;99.40;;;;;;10358050;28;20112;-67
2020/12/19 21:55:12;;;;;;;15.80;11.18;;;9.10;99.50;;;;;;10354334;28;20054;-66
2020/12/19 22:00:19;;;;;;;15.00;10.52;;;9.10;99.60;;;;;;10351141;28;20145;-67
2020/12/19 22:05:22;;;;;;;16.48;11.25;;;9.20;99.30;;;;;;10357002;28;20093;-67
2020/12/19 22:10:23;;;;;;;16.65;12.45;;;9.20;99.30;;;;;;10357642;28;20549;-66
2020/12/19 22:15:25;;;;;;;14.63;10.75;;;9.00;99.50;;;;;;10354886;28;20140;-66
2020/12/19 22:20:26;;;;;;;14.05;9.90;;;9.10;99.20;;;;;;10351302;28;20038;-67
2020/12/19 22:25:28;;;;;;;20.10;11.05;;;9.20;98.90;;;;;;10359590;28;20436;-66
2020/12/19 22:30:30;;;;;;;12.90;9.05;;;9.20;99.00;;;;;;10357923;28;20671;-66
2020/12/19 22:35:35;;;;;;;13.68;9.93;;;9.20;98.90;;;;;;10359853;28;20054;-66
2020/12/19 22:40:37;;;;;;;13.77;9.07;;;9.10;99.30;;;;;;10361295;28;20041;-67
2020/12/19 22:45:38;;;;;;;15.32;9.80;;;9.10;98.90;;;;;;10357651;28;20052;-67
2020/12/19 22:50:44;;;;;;;13.25;9.52;;;9.20;98.80;;;;;;10353102;28;20508;-66
2020/12/19 22:56:07;;;;;;;13.88;10.27;;;9.20;98.50;;;;;;10360074;28;20065;-67
2020/12/19 23:01:09;;;;;;;13.63;9.02;;;9.40;98.20;;;;;;10352803;28;20141;-66
2020/12/19 23:06:10;;;;;;;15.63;10.95;;;9.40;98.20;;;;;;10359552;28;20080;-66
2020/12/19 23:11:13;;;;;;;18.02;10.73;;;9.30;98.30;;;;;;10363079;28;20474;-67
2020/12/19 23:16:15;;;;;;;13.80;10.40;;;9.20;98.50;;;;;;10351246;28;20128;-67
2020/12/19 23:21:19;;;;;;;15.57;10.75;;;9.10;98.80;;;;;;10355016;28;20053;-67
2020/12/19 23:26:23;;;;;;;16.27;10.90;;;9.10;98.60;;;;;;10353022;28;20478;-67
2020/12/19 23:31:24;;;;;;;14.82;10.30;;;9.20;98.20;;;;;;10355916;28;20056;-67
2020/12/19 23:36:26;;;;;;;13.70;10.20;;;9.20;98.50;;;;;;10359961;28;20410;-67
2020/12/19 23:41:27;;;;;;;14.93;9.43;;;9.10;98.30;;;;;;10351377;28;20050;-66
2020/12/19 23:46:29;;;;;;;12.10;9.48;;;9.10;98.20;;;;;;10352300;28;20052;-66
2020/12/19 23:51:31;;;;;;;13.02;9.88;;;9.20;98.10;;;;;;10357549;28;20042;-66
2020/12/19 23:56:33;;;;;;;12.07;9.50;;;9.20;98.10;;;;;;10355366;28;21094;-67
